Time;durP1;ratioP1;P1;durP2;ratioP2;P2;SDS_P1;SDS_P2;PMS_P1;PMS_P2;Temp;Humidity;BMP_temperature;BMP_pressure;BME280_temperature;BME280_humidity;BME280_pressure;Samples;Min_cycle;Max_cycle;Signal;HPM_P1;HPM_P2
2024/01/08 00:01:47;;;;;;;7.40;1.60;;;27.10;99.90;;;;;;5103758;28;20545;-78
2024/01/08 00:04:18;;;;;;;5.93;1.70;;;27.10;99.90;;;;;;5110482;28;20691;-77
2024/01/08 00:06:50;;;;;;;5.18;1.25;;;27.10;99.90;;;;;;5110485;28;20590;-78
2024/01/08 00:09:24;;;;;;;6.95;1.58;;;27.10;99.90;;;;;;5092200;28;20245;-78
2024/01/08 00:11:57;;;;;;;6.88;1.60;;;27.10;99.90;;;;;;5091414;28;20300;-77
2024/01/08 00:14:27;;;;;;;3.63;1.35;;;27.00;99.90;;;;;;5110193;28;20186;-75
2024/01/08 00:16:58;;;;;;;4.70;1.38;;;27.00;99.90;;;;;;5110109;28;20211;-77
2024/01/08 00:19:29;;;;;;;3.92;1.63;;;26.80;99.90;;;;;;5095972;28;20320;-77
2024/01/08 00:22:00;;;;;;;3.83;1.20;;;26.80;99.90;;;;;;5089852;28;20195;-77
2024/01/08 00:24:30;;;;;;;5.00;1.58;;;26.60;99.90;;;;;;5089909;28;20591;-77
2024/01/08 00:27:03;;;;;;;3.38;1.40;;;26.60;99.90;;;;;;5089262;28;20210;-77
2024/01/08 00:29:34;;;;;;;2.58;1.00;;;26.60;99.90;;;;;;5089928;28;20192;-77
2024/01/08 00:32:05;;;;;;;4.90;1.10;;;26.60;99.90;;;;;;5089887;28;20219;-77
2024/01/08 00:34:36;;;;;;;5.43;1.70;;;26.60;99.90;;;;;;5090694;28;20699;-77
2024/01/08 00:37:07;;;;;;;7.65;1.83;;;26.60;99.90;;;;;;5103221;28;20290;-77
2024/01/08 00:39:38;;;;;;;4.60;1.50;;;26.60;99.90;;;;;;5096556;28;20191;-77
2024/01/08 00:42:11;;;;;;;5.40;1.38;;;26.70;99.90;;;;;;5110737;28;20205;-77
2024/01/08 00:44:45;;;;;;;3.17;1.38;;;26.60;99.90;;;;;;5097725;28;20261;-77
2024/01/08 00:47:15;;;;;;;6.03;1.60;;;26.60;99.90;;;;;;5096561;28;20219;-77
2024/01/08 00:49:47;;;;;;;5.20;1.40;;;26.60;99.90;;;;;;5091550;28;20234;-77
2024/01/08 00:52:18;;;;;;;5.55;1.70;;;26.60;99.90;;;;;;5096229;28;20219;-77
2024/01/08 00:54:48;;;;;;;6.63;1.63;;;26.70;99.90;;;;;;5089692;28;20198;-77
2024/01/08 00:57:21;;;;;;;5.53;1.58;;;26.70;99.90;;;;;;5093119;28;20195;-77
2024/01/08 00:59:52;;;;;;;4.70;1.50;;;26.70;99.90;;;;;;5093210;28;20203;-77
2024/01/08 01:02:22;;;;;;;5.38;1.48;;;26.70;99.90;;;;;;5093725;28;20568;-78
2024/01/08 01:04:53;;;;;;;3.88;1.20;;;26.80;99.90;;;;;;5108258;28;20201;-77
2024/01/08 01:07:24;;;;;;;6.32;1.58;;;26.80;99.90;;;;;;5106305;28;20192;-77
2024/01/08 01:09:55;;;;;;;3.03;1.08;;;26.80;99.90;;;;;;5097439;28;20187;-77
2024/01/08 01:12:28;;;;;;;4.53;1.63;;;26.70;99.90;;;;;;5098509;28;20697;-77
2024/01/08 01:14:59;;;;;;;4.57;1.15;;;26.60;99.90;;;;;;5093324;28;20214;-78
2024/01/08 01:17:30;;;;;;;5.82;1.52;;;26.50;99.90;;;;;;5100306;28;20195;-77
2024/01/08 01:20:03;;;;;;;4.80;1.33;;;26.60;99.90;;;;;;5111053;28;20198;-78
2024/01/08 01:22:33;;;;;;;7.47;1.50;;;26.60;99.90;;;;;;5100286;28;20199;-78
2024/01/08 01:25:04;;;;;;;3.80;1.40;;;26.50;99.90;;;;;;5092755;28;20283;-77
2024/01/08 01:27:40;;;;;;;6.05;1.63;;;26.50;99.90;;;;;;5101220;28;20614;-76
2024/01/08 01:30:12;;;;;;;6.05;1.65;;;26.60;99.90;;;;;;5102359;28;20197;-77
2024/01/08 01:32:43;;;;;;;4.97;1.15;;;26.60;99.90;;;;;;5098220;28;20333;-77
2024/01/08 01:35:15;;;;;;;4.15;1.35;;;26.60;99.90;;;;;;5110152;28;20264;-77
2024/01/08 01:37:46;;;;;;;6.22;1.40;;;26.70;99.90;;;;;;5098667;28;20195;-77
2024/01/08 01:40:17;;;;;;;6.45;1.40;;;26.80;99.90;;;;;;5101375;28;20297;-77
2024/01/08 01:42:54;;;;;;;4.25;1.00;;;26.90;99.90;;;;;;5101075;28;20192;-77
2024/01/08 01:45:25;;;;;;;2.53;1.10;;;27.00;99.90;;;;;;5092875;28;20194;-77
2024/01/08 01:47:56;;;;;;;5.53;1.48;;;27.20;99.90;;;;;;5092182;28;20225;-76
2024/01/08 01:50:28;;;;;;;3.38;1.20;;;27.30;99.90;;;;;;5109423;28;20194;-76
2024/01/08 01:52:58;;;;;;;3.83;1.45;;;27.40;99.90;;;;;;5110683;28;20218;-77
2024/01/08 01:55:38;;;;;;;4.30;1.45;;;27.60;99.90;;;;;;5099854;28;20197;-77
2024/01/08 01:58:11;;;;;;;4.32;1.23;;;27.70;99.90;;;;;;5110606;28;20186;-77
2024/01/08 02:00:44;;;;;;;6.07;1.58;;;27.80;99.90;;;;;;5110429;28;20206;-77
2024/01/08 02:03:15;;;;;;;5.10;1.70;;;27.90;99.90;;;;;;5092106;28;20191;-76
2024/01/08 02:05:46;;;;;;;3.08;1.38;;;27.90;99.90;;;;;;5092387;28;20677;-77
2024/01/08 02:08:17;;;;;;;3.90;1.55;;;27.90;99.90;;;;;;5103025;28;20742;-77
2024/01/08 02:10:48;;;;;;;5.78;1.63;;;28.00;99.90;;;;;;5104545;28;20610;-76
2024/01/08 02:13:21;;;;;;;6.00;1.42;;;28.00;99.90;;;;;;5095789;28;20222;-76
2024/01/08 02:15:52;;;;;;;4.13;1.38;;;28.00;99.90;;;;;;5090120;28;20307;-76
2024/01/08 02:18:23;;;;;;;2.83;1.17;;;28.10;99.90;;;;;;5103043;28;20206;-76
2024/01/08 02:20:54;;;;;;;6.25;1.38;;;28.10;99.90;;;;;;5101167;28;20195;-76
2024/01/08 02:23:27;;;;;;;2.55;1.30;;;28.10;99.90;;;;;;5095009;28;20199;-76
2024/01/08 02:25:58;;;;;;;6.72;1.48;;;28.20;99.90;;;;;;5099087;28;20228;-77
2024/01/08 02:28:29;;;;;;;5.40;1.65;;;28.30;99.90;;;;;;5097190;28;20191;-77
2024/01/08 02:31:00;;;;;;;3.45;1.50;;;28.40;99.90;;;;;;5091690;28;20199;-76
2024/01/08 02:33:31;;;;;;;2.78;1.30;;;28.30;99.90;;;;;;5098460;28;20221;-77
2024/01/08 02:36:02;;;;;;;2.92;1.40;;;28.30;99.90;;;;;;5094724;28;20217;-77
2024/01/08 02:38:34;;;;;;;4.95;1.52;;;28.30;99.90;;;;;;5091541;28;20674;-77
2024/01/08 02:41:05;;;;;;;4.10;1.13;;;28.20;99.90;;;;;;5091037;28;20593;-76
2024/01/08 02:43:36;;;;;;;4.07;1.38;;;28.00;99.90;;;;;;5091073;28;20203;-76
2024/01/08 02:46:07;;;;;;;3.85;1.30;;;27.80;99.90;;;;;;5089781;28;20278;-76
2024/01/08 02:48:37;;;;;;;5.07;1.33;;;27.50;99.90;;;;;;5091111;28;20582;-76
2024/01/08 02:51:08;;;;;;;3.60;1.27;;;27.40;99.90;;;;;;5091831;28;20202;-76
2024/01/08 02:53:41;;;;;;;3.60;1.10;;;27.30;99.90;;;;;;5100385;28;20579;-76
2024/01/08 02:56:21;;;;;;;7.47;1.65;;;27.20;99.90;;;;;;5107525;28;20277;-77
2024/01/08 02:58:52;;;;;;;4.78;1.52;;;27.00;99.90;;;;;;5111471;28;20199;-77
2024/01/08 03:01:23;;;;;;;2.95;1.20;;;26.80;99.90;;;;;;5111444;28;20191;-77
2024/01/08 03:03:53;;;;;;;5.18;1.70;;;26.80;99.90;;;;;;5109018;28;20201;-77
2024/01/08 03:06:24;;;;;;;5.60;1.65;;;26.80;99.90;;;;;;5108281;28;20202;-76
2024/01/08 03:08:57;;;;;;;4.47;1.38;;;26.70;99.90;;;;;;5100519;28;20202;-77
2024/01/08 03:11:28;;;;;;;5.10;1.92;;;26.70;99.90;;;;;;5090949;28;20195;-77
2024/01/08 03:13:59;;;;;;;6.75;2.17;;;26.60;99.90;;;;;;5090680;28;20222;-76
2024/01/08 03:16:30;;;;;;;6.25;1.60;;;26.50;99.90;;;;;;5092604;28;20264;-77
2024/01/08 03:19:01;;;;;;;6.05;1.70;;;26.50;99.90;;;;;;5110867;28;20194;-77
2024/01/08 03:21:32;;;;;;;5.75;1.67;;;26.50;99.90;;;;;;5124752;28;20194;-76
2024/01/08 03:24:04;;;;;;;5.20;1.65;;;26.40;99.90;;;;;;5096121;28;20203;-77
2024/01/08 03:26:35;;;;;;;6.28;1.90;;;26.40;99.90;;;;;;5091203;28;20226;-77
2024/01/08 03:29:06;;;;;;;4.93;1.50;;;26.30;99.90;;;;;;5090356;28;20677;-76
2024/01/08 03:31:43;;;;;;;4.13;1.42;;;26.20;99.90;;;;;;5090071;28;20191;-76
2024/01/08 03:34:14;;;;;;;3.40;1.33;;;26.20;99.90;;;;;;5097034;28;20195;-76
2024/01/08 03:36:48;;;;;;;5.68;1.80;;;26.10;99.90;;;;;;5089936;28;20213;-76
2024/01/08 03:39:21;;;;;;;5.32;1.40;;;26.10;99.90;;;;;;5093039;28;20197;-76
2024/01/08 03:41:51;;;;;;;4.07;1.50;;;26.00;99.90;;;;;;5107583;28;20657;-76
2024/01/08 03:44:23;;;;;;;4.47;1.48;;;25.90;99.90;;;;;;5100418;28;20190;-76
2024/01/08 03:46:54;;;;;;;3.10;1.30;;;25.80;99.90;;;;;;5101192;28;20199;-76
2024/01/08 03:49:24;;;;;;;4.18;1.33;;;25.70;99.90;;;;;;5097432;28;20210;-76
2024/01/08 03:51:55;;;;;;;2.10;1.02;;;25.60;99.90;;;;;;5090452;28;20222;-76
2024/01/08 03:54:28;;;;;;;3.75;1.20;;;25.50;99.90;;;;;;5100191;28;20658;-76
2024/01/08 03:56:59;;;;;;;4.68;1.10;;;25.50;99.90;;;;;;5101898;28;20509;-77
2024/01/08 03:59:29;;;;;;;3.20;1.25;;;25.50;99.90;;;;;;5094581;28;20657;-77
2024/01/08 04:02:03;;;;;;;2.45;1.00;;;25.50;99.90;;;;;;5089655;28;20203;-76
2024/01/08 04:04:33;;;;;;;2.05;1.00;;;25.50;99.90;;;;;;5100934;28;20201;-76
2024/01/08 04:07:04;;;;;;;3.15;1.30;;;25.50;99.90;;;;;;5093436;28;20792;-77
2024/01/08 04:09:37;;;;;;;3.67;1.40;;;25.50;99.90;;;;;;5095241;28;20191;-78
2024/01/08 04:12:08;;;;;;;1.70;0.90;;;25.40;99.90;;;;;;5092421;28;20221;-78
2024/01/08 04:14:39;;;;;;;4.00;1.10;;;25.40;99.90;;;;;;5090605;28;20310;-77
2024/01/08 04:17:10;;;;;;;4.10;1.40;;;25.30;99.90;;;;;;5089131;28;20198;-76
2024/01/08 04:19:40;;;;;;;2.70;1.15;;;25.40;99.90;;;;;;5093585;28;20191;-76
2024/01/08 04:22:11;;;;;;;1.80;1.10;;;25.50;99.90;;;;;;5095699;28;20203;-76
2024/01/08 04:24:44;;;;;;;3.45;1.30;;;25.50;99.90;;;;;;5094272;28;20206;-76
2024/01/08 04:27:15;;;;;;;2.50;1.10;;;25.50;99.90;;;;;;5089638;28;20196;-76
2024/01/08 04:29:46;;;;;;;3.90;1.33;;;25.50;99.90;;;;;;5089936;28;20195;-77
2024/01/08 04:32:16;;;;;;;4.95;1.20;;;25.50;99.90;;;;;;5107236;28;20211;-76
2024/01/08 04:34:47;;;;;;;5.28;1.30;;;25.50;99.90;;;;;;5097475;28;20191;-76
2024/01/08 04:37:18;;;;;;;3.30;1.20;;;25.50;99.90;;;;;;5095748;28;20238;-77
2024/01/08 04:39:51;;;;;;;3.45;1.40;;;25.40;99.90;;;;;;5105668;28;20194;-77
2024/01/08 04:42:22;;;;;;;3.28;1.35;;;25.50;99.90;;;;;;5105882;28;22697;-77
2024/01/08 04:44:52;;;;;;;3.60;1.15;;;25.50;99.90;;;;;;5101891;28;20269;-77
2024/01/08 04:47:23;;;;;;;2.38;1.20;;;25.50;99.90;;;;;;5097460;28;20738;-76
2024/01/08 04:49:54;;;;;;;3.53;1.30;;;25.50;99.90;;;;;;5098581;28;21896;-76
2024/01/08 04:52:24;;;;;;;4.35;1.35;;;25.40;99.90;;;;;;5101105;28;20685;-76
2024/01/08 04:54:57;;;;;;;4.63;1.38;;;25.40;99.90;;;;;;5099807;28;20930;-75
2024/01/08 04:57:29;;;;;;;3.90;1.48;;;25.40;99.90;;;;;;5107263;28;20249;-76
2024/01/08 05:00:03;;;;;;;5.65;1.35;;;25.40;99.90;;;;;;5092609;28;20187;-75
2024/01/08 05:02:34;;;;;;;3.33;1.10;;;25.30;99.90;;;;;;5103411;28;20194;-75
2024/01/08 05:05:07;;;;;;;2.33;1.02;;;25.20;99.90;;;;;;5112610;28;20210;-76
2024/01/08 05:07:38;;;;;;;2.85;1.27;;;25.20;99.90;;;;;;5106504;28;20219;-77
2024/01/08 05:10:11;;;;;;;4.18;1.27;;;25.20;99.90;;;;;;5111270;28;20673;-77
2024/01/08 05:12:42;;;;;;;2.78;1.23;;;25.20;99.90;;;;;;5100877;28;20223;-76
2024/01/08 05:15:16;;;;;;;3.40;1.30;;;25.20;99.90;;;;;;5101623;28;20557;-76
2024/01/08 05:17:47;;;;;;;2.35;1.30;;;25.20;99.90;;;;;;5099466;28;20264;-76
2024/01/08 05:20:18;;;;;;;2.55;1.10;;;25.30;99.90;;;;;;5110135;28;20194;-76
2024/01/08 05:22:50;;;;;;;1.73;1.17;;;25.40;99.90;;;;;;5103163;28;20575;-76
2024/01/08 05:25:24;;;;;;;3.53;1.20;;;25.50;99.90;;;;;;5098723;28;20187;-76
2024/01/08 05:27:55;;;;;;;2.65;1.35;;;25.60;99.90;;;;;;5107829;28;20201;-76
2024/01/08 05:30:26;;;;;;;3.22;1.27;;;25.60;99.90;;;;;;5106083;28;20198;-77
2024/01/08 05:32:56;;;;;;;3.53;1.20;;;25.60;99.90;;;;;;5101653;28;20254;-75
2024/01/08 05:35:27;;;;;;;3.75;1.35;;;25.60;99.90;;;;;;5112335;28;20194;-76
2024/01/08 05:37:58;;;;;;;4.70;1.42;;;25.60;99.90;;;;;;5111487;28;20282;-75
2024/01/08 05:40:33;;;;;;;3.08;1.10;;;25.70;99.90;;;;;;5096995;28;20203;-76
2024/01/08 05:43:04;;;;;;;4.72;1.30;;;25.70;99.90;;;;;;5093025;28;20664;-76
2024/01/08 05:45:35;;;;;;;3.08;1.13;;;25.70;99.90;;;;;;5091780;28;20202;-76
2024/01/08 05:48:07;;;;;;;2.55;1.00;;;25.60;99.90;;;;;;5092167;28;20231;-77
2024/01/08 05:50:37;;;;;;;3.25;1.00;;;25.70;99.90;;;;;;5092704;28;20566;-76
2024/01/08 05:53:08;;;;;;;4.13;1.25;;;25.70;99.90;;;;;;5102271;28;20257;-76
2024/01/08 05:55:44;;;;;;;4.05;1.50;;;25.70;99.90;;;;;;5094564;28;20690;-77
2024/01/08 05:58:15;;;;;;;2.30;0.90;;;25.60;99.90;;;;;;5093192;28;20672;-76
2024/01/08 06:00:46;;;;;;;2.55;1.00;;;25.60;99.90;;;;;;5111376;28;20187;-76
2024/01/08 06:03:16;;;;;;;3.15;1.05;;;25.60;99.90;;;;;;5100264;28;20223;-76
2024/01/08 06:05:47;;;;;;;4.13;1.00;;;25.60;99.90;;;;;;5091924;28;20198;-76
2024/01/08 06:08:18;;;;;;;1.92;1.00;;;25.60;99.90;;;;;;5105943;28;20195;-76
2024/01/08 06:10:51;;;;;;;2.78;1.20;;;25.60;99.90;;;;;;5107365;28;20198;-77
2024/01/08 06:13:22;;;;;;;2.03;0.85;;;25.60;99.90;;;;;;5099283;28;20211;-77
2024/01/08 06:15:53;;;;;;;2.65;1.15;;;25.70;99.90;;;;;;5092491;28;20573;-77
2024/01/08 06:18:24;;;;;;;2.38;1.00;;;25.70;99.90;;;;;;5099814;28;20195;-77
2024/01/08 06:20:54;;;;;;;2.30;0.98;;;25.70;99.90;;;;;;5110584;28;20190;-77
2024/01/08 06:23:25;;;;;;;3.63;1.20;;;25.70;99.90;;;;;;5097910;28;20207;-77
2024/01/08 06:25:58;;;;;;;2.95;0.90;;;25.80;99.90;;;;;;5093772;28;20264;-77
2024/01/08 06:28:29;;;;;;;2.03;1.00;;;25.80;99.90;;;;;;5103603;28;20209;-77
2024/01/08 06:30:59;;;;;;;1.13;0.82;;;25.80;99.90;;;;;;5110401;28;20194;-77
2024/01/08 06:33:30;;;;;;;3.15;1.00;;;25.80;99.90;;;;;;5095448;28;20241;-77
2024/01/08 06:36:01;;;;;;;2.58;1.20;;;25.90;99.90;;;;;;5109382;28;20206;-77
2024/01/08 06:38:32;;;;;;;2.75;1.10;;;26.00;99.90;;;;;;5097181;28;20199;-75
2024/01/08 06:41:05;;;;;;;2.50;1.02;;;26.00;99.90;;;;;;5100510;28;20198;-77
2024/01/08 06:43:36;;;;;;;3.55;1.15;;;26.00;99.90;;;;;;5092148;28;20203;-77
2024/01/08 06:46:08;;;;;;;3.00;1.25;;;26.00;99.90;;;;;;5105560;28;20193;-77
2024/01/08 06:48:39;;;;;;;3.15;1.00;;;25.90;99.90;;;;;;5093300;28;20230;-77
2024/01/08 06:51:11;;;;;;;2.83;0.90;;;26.00;99.90;;;;;;5100179;28;20202;-78
2024/01/08 06:53:42;;;;;;;2.67;1.05;;;26.00;99.90;;;;;;5107662;28;20264;-77
2024/01/08 06:56:14;;;;;;;4.10;1.13;;;26.00;99.90;;;;;;5110802;28;20198;-76
2024/01/08 06:58:45;;;;;;;1.98;1.02;;;26.00;99.90;;;;;;5107354;28;20197;-75
2024/01/08 07:01:18;;;;;;;4.38;0.95;;;26.00;99.90;;;;;;5108058;28;20211;-81
2024/01/08 07:03:49;;;;;;;3.30;1.17;;;26.00;99.90;;;;;;5106105;28;20194;-75
2024/01/08 07:06:20;;;;;;;4.38;1.42;;;26.00;99.90;;;;;;5101404;28;20205;-75
2024/01/08 07:08:50;;;;;;;5.60;1.70;;;26.00;99.90;;;;;;5089845;28;20241;-76
2024/01/08 07:11:27;;;;;;;2.97;1.20;;;25.90;99.90;;;;;;5094624;28;20195;-75
2024/01/08 07:13:58;;;;;;;3.08;1.15;;;25.90;99.90;;;;;;5096864;28;20581;-76
2024/01/08 07:16:29;;;;;;;1.75;0.90;;;26.00;99.90;;;;;;5110608;28;20682;-75
2024/01/08 07:19:00;;;;;;;3.33;1.00;;;26.00;99.90;;;;;;5110954;28;20205;-75
2024/01/08 07:21:34;;;;;;;3.70;1.13;;;26.00;99.90;;;;;;5097542;28;20205;-75
2024/01/08 07:24:08;;;;;;;2.42;0.93;;;26.00;99.90;;;;;;5090275;28;20343;-75
2024/01/08 07:26:41;;;;;;;4.10;1.00;;;26.00;99.90;;;;;;5089508;28;20576;-76
2024/01/08 07:29:11;;;;;;;2.38;0.90;;;26.00;99.90;;;;;;5089420;28;20203;-76
2024/01/08 07:31:42;;;;;;;1.42;0.90;;;25.80;99.90;;;;;;5090229;28;20199;-76
2024/01/08 07:34:13;;;;;;;2.20;1.00;;;25.80;99.90;;;;;;5100538;28;20327;-76
2024/01/08 07:36:44;;;;;;;2.78;1.10;;;25.70;99.90;;;;;;5090427;28;20207;-76
2024/01/08 07:39:15;;;;;;;2.60;1.02;;;25.70;99.90;;;;;;5089957;28;20666;-76
2024/01/08 07:41:49;;;;;;;1.77;1.00;;;25.70;99.90;;;;;;5092079;28;20195;-76
2024/01/08 07:44:20;;;;;;;1.70;1.08;;;25.80;99.90;;;;;;5110780;28;20201;-77
2024/01/08 07:46:51;;;;;;;2.95;1.00;;;25.70;99.90;;;;;;5090548;28;20243;-77
2024/01/08 07:49:23;;;;;;;1.40;1.15;;;25.80;99.90;;;;;;5089900;28;20548;-77
2024/01/08 07:51:54;;;;;;;2.95;1.20;;;25.80;99.90;;;;;;5089158;28;20226;-77
2024/01/08 07:54:25;;;;;;;3.17;0.93;;;25.80;99.90;;;;;;5089691;28;20763;-76
2024/01/08 07:56:58;;;;;;;3.03;1.10;;;25.70;99.90;;;;;;5099707;28;20256;-76
2024/01/08 07:59:29;;;;;;;1.83;0.80;;;25.70;99.90;;;;;;5099972;28;20210;-76
2024/01/08 08:02:00;;;;;;;1.50;0.65;;;25.70;99.90;;;;;;5103672;28;20194;-76
2024/01/08 08:04:31;;;;;;;1.13;0.70;;;25.70;99.90;;;;;;5101073;28;20218;-76
2024/01/08 08:07:02;;;;;;;1.00;0.60;;;25.60;99.90;;;;;;5093220;28;20646;-76
2024/01/08 08:09:32;;;;;;;1.75;0.60;;;25.60;99.90;;;;;;5101774;28;20215;-77
2024/01/08 08:12:08;;;;;;;1.90;0.73;;;25.60;99.90;;;;;;5094184;28;20203;-77
2024/01/08 08:14:38;;;;;;;2.42;0.90;;;25.60;99.90;;;;;;5094488;28;20316;-76
2024/01/08 08:17:09;;;;;;;1.48;0.70;;;25.50;99.90;;;;;;5096906;28;20202;-77
2024/01/08 08:19:43;;;;;;;1.77;0.70;;;25.60;99.90;;;;;;5109641;28;20210;-77
2024/01/08 08:22:14;;;;;;;1.40;0.63;;;25.60;99.90;;;;;;5111529;28;20188;-77
2024/01/08 08:24:47;;;;;;;2.53;0.60;;;25.60;99.90;;;;;;5094480;28;20195;-76
2024/01/08 08:27:19;;;;;;;1.08;0.60;;;25.50;99.90;;;;;;5101261;28;20673;-75
2024/01/08 08:29:50;;;;;;;1.50;0.70;;;25.50;99.90;;;;;;5094120;28;20197;-75
2024/01/08 08:32:21;;;;;;;1.02;0.70;;;25.50;99.90;;;;;;5094596;28;20203;-75
2024/01/08 08:34:52;;;;;;;0.95;0.50;;;25.60;99.90;;;;;;5094121;28;20223;-75
2024/01/08 08:37:22;;;;;;;1.65;0.68;;;25.60;99.90;;;;;;5093537;28;20206;-75
2024/01/08 08:39:53;;;;;;;0.75;0.55;;;25.60;99.90;;;;;;5092587;28;20207;-75
2024/01/08 08:42:26;;;;;;;1.35;0.65;;;25.60;99.90;;;;;;5098572;28;20247;-75
2024/01/08 08:44:56;;;;;;;0.90;0.47;;;25.60;99.90;;;;;;5107611;28;20226;-75
2024/01/08 08:47:27;;;;;;;2.28;0.90;;;25.60;99.90;;;;;;5113686;28;20230;-76
2024/01/08 08:49:58;;;;;;;1.98;0.73;;;25.60;99.90;;;;;;5095307;28;20298;-76
2024/01/08 08:52:29;;;;;;;1.58;0.65;;;25.60;99.90;;;;;;5095877;28;20230;-76
2024/01/08 08:55:00;;;;;;;1.60;0.70;;;25.60;99.90;;;;;;5098634;28;20254;-76
2024/01/08 08:57:32;;;;;;;1.05;0.70;;;25.60;99.90;;;;;;5106555;28;20198;-76
2024/01/08 09:00:03;;;;;;;1.67;0.60;;;25.60;99.90;;;;;;5113440;28;20658;-77
2024/01/08 09:02:34;;;;;;;3.95;0.85;;;25.60;99.90;;;;;;5095390;28;20192;-76
2024/01/08 09:05:05;;;;;;;0.82;0.70;;;25.60;99.90;;;;;;5104569;28;20229;-76
2024/01/08 09:07:36;;;;;;;2.03;0.77;;;25.50;99.90;;;;;;5113278;28;20205;-76
2024/01/08 09:10:07;;;;;;;2.67;1.10;;;25.50;99.90;;;;;;5113221;28;20615;-76
2024/01/08 09:12:40;;;;;;;1.80;1.00;;;25.50;99.90;;;;;;5092209;28;20195;-76
2024/01/08 09:15:11;;;;;;;1.77;1.13;;;25.50;99.90;;;;;;5095914;28;20226;-76
2024/01/08 09:17:42;;;;;;;1.67;0.98;;;25.50;99.90;;;;;;5106107;28;20210;-76
2024/01/08 09:20:14;;;;;;;3.92;1.30;;;25.50;99.90;;;;;;5100497;28;20195;-76
2024/01/08 09:22:45;;;;;;;1.95;1.10;;;25.50;99.90;;;;;;5097244;28;20255;-76
2024/01/08 09:25:16;;;;;;;1.80;1.05;;;25.50;99.90;;;;;;5092568;28;20206;-76
2024/01/08 09:27:50;;;;;;;3.03;1.20;;;25.50;99.90;;;;;;5097617;28;20222;-76
2024/01/08 09:30:21;;;;;;;1.63;1.00;;;25.50;99.90;;;;;;5095469;28;20205;-76
2024/01/08 09:32:51;;;;;;;3.25;0.95;;;25.50;99.90;;;;;;5097438;28;20195;-76
2024/01/08 09:35:22;;;;;;;1.52;0.73;;;25.50;99.90;;;;;;5092681;28;20238;-76
2024/01/08 09:37:54;;;;;;;2.05;1.00;;;25.50;99.90;;;;;;5099256;28;20270;-76
2024/01/08 09:40:25;;;;;;;1.98;0.93;;;25.50;99.90;;;;;;5105299;28;20194;-76
2024/01/08 09:43:00;;;;;;;1.38;0.75;;;25.50;99.90;;;;;;5092389;28;20680;-76
2024/01/08 09:45:32;;;;;;;1.08;0.80;;;25.50;99.90;;;;;;5097592;28;20630;-76
2024/01/08 09:48:04;;;;;;;2.00;0.80;;;25.50;99.90;;;;;;5096929;28;20227;-76
2024/01/08 09:50:37;;;;;;;1.70;0.85;;;25.50;99.90;;;;;;5102923;28;20196;-76
2024/01/08 09:53:08;;;;;;;0.88;0.70;;;25.50;99.90;;;;;;5094983;28;20203;-76
2024/01/08 09:55:40;;;;;;;2.38;0.70;;;25.50;99.90;;;;;;5110178;28;20226;-76
2024/01/08 09:58:12;;;;;;;1.67;0.70;;;25.50;99.90;;;;;;5092591;28;20203;-76
2024/01/08 10:00:45;;;;;;;1.88;0.90;;;25.50;99.90;;;;;;5110540;28;20459;-76
2024/01/08 10:03:16;;;;;;;2.05;0.70;;;25.40;99.90;;;;;;5111375;28;20195;-76
2024/01/08 10:05:46;;;;;;;1.10;0.60;;;25.40;99.90;;;;;;5109847;28;20278;-76
2024/01/08 10:08:19;;;;;;;1.45;0.75;;;25.40;99.90;;;;;;5091924;28;20245;-76
2024/01/08 10:10:50;;;;;;;1.48;0.63;;;25.40;99.90;;;;;;5099301;28;20202;-76
2024/01/08 10:13:24;;;;;;;1.25;0.65;;;25.30;99.90;;;;;;5097214;28;20282;-76
2024/01/08 10:15:56;;;;;;;0.95;0.63;;;25.40;99.90;;;;;;5091488;28;20220;-76
2024/01/08 10:18:27;;;;;;;1.85;0.60;;;25.30;99.90;;;;;;5094516;28;20223;-76
2024/01/08 10:21:12;;;;;;;1.52;0.60;;;25.30;99.90;;;;;;5091818;28;20195;-76
2024/01/08 10:23:43;;;;;;;2.13;0.70;;;25.30;99.90;;;;;;5091600;28;20210;-75
2024/01/08 10:26:17;;;;;;;0.95;0.57;;;25.30;99.90;;;;;;5091359;28;20207;-76
2024/01/08 10:28:50;;;;;;;0.93;0.50;;;25.30;99.90;;;;;;5108387;28;20235;-74
2024/01/08 10:31:24;;;;;;;1.00;0.63;;;25.30;99.90;;;;;;5092480;28;20278;-75
2024/01/08 10:33:55;;;;;;;1.77;0.70;;;25.20;99.90;;;;;;5101907;28;20195;-76
2024/01/08 10:36:26;;;;;;;1.73;0.60;;;25.20;99.90;;;;;;5091148;28;20777;-76
2024/01/08 10:38:57;;;;;;;1.13;0.60;;;25.20;99.90;;;;;;5100672;28;20614;-76
2024/01/08 10:41:28;;;;;;;1.25;0.55;;;25.20;99.90;;;;;;5102350;27;20635;-76
2024/01/08 10:44:01;;;;;;;1.58;0.80;;;25.20;99.90;;;;;;5090376;28;20196;-77
2024/01/08 10:46:39;;;;;;;1.30;0.50;;;25.20;99.90;;;;;;5104615;28;20277;-77
2024/01/08 10:49:19;;;;;;;0.40;0.40;;;25.20;99.90;;;;;;5098953;28;20226;-77
2024/01/08 10:51:52;;;;;;;0.70;0.57;;;25.20;99.90;;;;;;5101801;28;20221;-76
2024/01/08 10:54:23;;;;;;;1.67;0.65;;;25.20;99.90;;;;;;5099165;28;20218;-76
2024/01/08 10:57:00;;;;;;;0.70;0.50;;;25.20;99.90;;;;;;5089876;28;20298;-75
2024/01/08 10:59:33;;;;;;;1.33;0.50;;;25.20;99.90;;;;;;5090880;28;20195;-75
2024/01/08 11:02:04;;;;;;;2.22;0.70;;;25.20;99.90;;;;;;5101828;28;20195;-76
2024/01/08 11:04:35;;;;;;;0.88;0.50;;;25.20;99.90;;;;;;5091413;28;20217;-75
2024/01/08 11:07:09;;;;;;;2.45;0.60;;;25.20;99.90;;;;;;5090615;28;20195;-75
2024/01/08 11:09:40;;;;;;;2.17;0.50;;;25.20;99.90;;;;;;5090986;28;20672;-75
2024/01/08 11:12:15;;;;;;;0.80;0.40;;;25.20;99.90;;;;;;5093875;28;20210;-76
2024/01/08 11:15:02;;;;;;;0.40;0.40;;;25.20;99.90;;;;;;5093342;28;20218;-76
2024/01/08 11:17:33;;;;;;;0.80;0.50;;;25.20;99.90;;;;;;5097328;28;20580;-76
2024/01/08 11:20:06;;;;;;;0.93;0.50;;;25.20;99.90;;;;;;5098571;28;20195;-76
2024/01/08 11:22:38;;;;;;;0.43;0.43;;;25.20;99.90;;;;;;5091399;28;20684;-76
2024/01/08 11:25:09;;;;;;;1.13;0.47;;;25.20;99.90;;;;;;5093769;28;20603;-76
2024/01/08 11:27:40;;;;;;;0.77;0.50;;;25.20;99.90;;;;;;5099491;28;20195;-76
2024/01/08 11:30:13;;;;;;;2.17;0.55;;;25.20;99.90;;;;;;5090736;28;20194;-76
2024/01/08 11:33:21;;;;;;;0.43;0.40;;;25.20;99.90;;;;;;5100009;28;20195;-76
2024/01/08 11:36:04;;;;;;;1.08;0.45;;;25.10;99.90;;;;;;5091678;28;20222;-76
2024/01/08 11:38:35;;;;;;;0.40;0.40;;;25.20;99.90;;;;;;5096315;28;20215;-76
2024/01/08 11:41:06;;;;;;;0.70;0.45;;;25.20;99.90;;;;;;5099869;28;20218;-76
2024/01/08 11:43:38;;;;;;;0.77;0.50;;;25.10;99.90;;;;;;5102828;28;20197;-76
2024/01/08 11:46:11;;;;;;;1.98;0.50;;;25.10;99.90;;;;;;5091611;28;20211;-75
2024/01/08 11:48:42;;;;;;;2.50;0.60;;;25.20;99.90;;;;;;5102923;28;20226;-75
2024/01/08 11:51:16;;;;;;;2.70;0.60;;;25.20;99.90;;;;;;5089477;28;20208;-77
2024/01/08 11:53:50;;;;;;;1.08;0.40;;;25.10;99.90;;;;;;5088618;28;20530;-75
2024/01/08 11:56:21;;;;;;;0.93;0.50;;;25.10;99.90;;;;;;5090524;28;20310;-74
2024/01/08 11:58:52;;;;;;;0.98;0.50;;;25.10;99.90;;;;;;5090460;28;20683;-76
2024/01/08 12:01:24;;;;;;;0.85;0.50;;;25.10;99.90;;;;;;5088218;28;20195;-75
2024/01/08 12:04:01;;;;;;;0.30;0.30;;;25.10;99.90;;;;;;5088409;28;20688;-75
2024/01/08 12:06:31;;;;;;;0.43;0.32;;;25.10;99.90;;;;;;5103253;28;20202;-76
2024/01/08 12:09:03;;;;;;;1.80;0.68;;;25.10;99.90;;;;;;5106474;28;20191;-76
2024/01/08 12:11:34;;;;;;;2.20;0.50;;;25.10;99.90;;;;;;5095193;27;20195;-75
2024/01/08 12:14:06;;;;;;;1.58;0.40;;;25.10;99.90;;;;;;5092017;28;20206;-75
2024/01/08 12:16:39;;;;;;;0.68;0.38;;;25.10;99.90;;;;;;5089332;28;20211;-75
2024/01/08 12:19:12;;;;;;;0.90;0.35;;;25.00;99.90;;;;;;5095822;28;20191;-76
2024/01/08 12:21:43;;;;;;;0.65;0.50;;;25.00;99.90;;;;;;5098547;28;20199;-76
2024/01/08 12:24:14;;;;;;;0.88;0.60;;;25.00;99.90;;;;;;5095390;28;20644;-76
2024/01/08 12:26:45;;;;;;;0.75;0.50;;;25.00;99.90;;;;;;5087973;28;20195;-75
2024/01/08 12:29:18;;;;;;;1.02;0.35;;;25.00;99.90;;;;;;5089662;28;20249;-75
2024/01/08 12:31:59;;;;;;;0.70;0.35;;;25.00;99.90;;;;;;5099889;28;20191;-75
2024/01/08 12:34:34;;;;;;;1.10;0.50;;;25.00;99.90;;;;;;5089289;28;20194;-74
2024/01/08 12:37:05;;;;;;;1.45;0.50;;;24.90;99.90;;;;;;5089032;28;20206;-75
2024/01/08 12:39:36;;;;;;;0.80;0.40;;;24.90;99.90;;;;;;5089134;28;20223;-75
2024/01/08 12:42:09;;;;;;;0.75;0.47;;;24.90;99.90;;;;;;5095748;28;20696;-75
2024/01/08 12:44:41;;;;;;;0.85;0.40;;;24.90;99.90;;;;;;5092995;28;20196;-75
2024/01/08 12:47:14;;;;;;;0.40;0.30;;;24.90;99.90;;;;;;5108975;28;20198;-76
2024/01/08 12:49:45;;;;;;;0.65;0.40;;;24.90;99.90;;;;;;5105877;28;20209;-76
2024/01/08 12:52:16;;;;;;;0.70;0.52;;;24.90;99.90;;;;;;5095237;28;20191;-75
2024/01/08 12:54:46;;;;;;;1.40;0.50;;;24.90;99.90;;;;;;5097325;28;20197;-76
2024/01/08 12:57:17;;;;;;;1.38;0.30;;;24.90;99.90;;;;;;5112723;28;20205;-75
2024/01/08 12:59:55;;;;;;;1.67;0.50;;;24.90;99.90;;;;;;5094674;28;20578;-76
2024/01/08 13:02:31;;;;;;;1.52;0.50;;;25.00;99.90;;;;;;5093082;28;20199;-76
2024/01/08 13:05:04;;;;;;;1.02;0.60;;;25.00;99.90;;;;;;5093812;28;20214;-75
2024/01/08 13:07:35;;;;;;;0.85;0.45;;;25.00;99.90;;;;;;5102153;28;20669;-76
2024/01/08 13:10:06;;;;;;;0.40;0.32;;;25.00;99.90;;;;;;5112613;28;20194;-76
2024/01/08 13:12:38;;;;;;;1.20;0.47;;;25.00;99.90;;;;;;5103993;28;20221;-75